createdAt,value
2018-07-06T00:00:16.137Z,6.90
2018-07-06T00:01:16.075Z,6.60
2018-07-06T00:02:16.015Z,7.20
2018-07-06T00:03:15.953Z,6.70
2018-07-06T00:04:15.894Z,6.70
2018-07-06T00:05:15.835Z,7.20
2018-07-06T00:06:15.775Z,6.80
2018-07-06T00:07:15.721Z,6.80
2018-07-06T00:08:15.654Z,6.90
2018-07-06T00:09:15.591Z,6.60
2018-07-06T00:10:15.532Z,6.60
2018-07-06T00:11:15.480Z,6.30
2018-07-06T00:12:15.432Z,6.90
2018-07-06T00:13:15.350Z,6.40
2018-07-06T00:14:15.291Z,6.70
2018-07-06T00:15:15.232Z,6.80
2018-07-06T00:16:15.171Z,7.10
2018-07-06T00:17:15.112Z,6.80
2018-07-06T00:18:15.051Z,6.60
2018-07-06T00:19:14.994Z,7.70
2018-07-06T00:20:14.931Z,7.30
2018-07-06T00:21:14.870Z,7.60
2018-07-06T00:22:14.811Z,7.90
2018-07-06T00:23:14.748Z,7.90
2018-07-06T00:24:14.688Z,7.90
2018-07-06T00:25:14.627Z,8.20
2018-07-06T00:26:14.569Z,8.70
2018-07-06T00:27:14.508Z,8.80
2018-07-06T00:28:14.448Z,9.40
2018-07-06T00:29:14.388Z,9.70
2018-07-06T00:30:14.327Z,9.40
2018-07-06T00:31:14.267Z,9.70
2018-07-06T00:32:14.208Z,10.60
2018-07-06T00:33:14.145Z,10.50
2018-07-06T00:34:14.084Z,10.60
2018-07-06T00:35:14.029Z,10.00
2018-07-06T00:36:13.966Z,10.20
2018-07-06T00:37:13.905Z,9.20
2018-07-06T00:38:13.845Z,9.80
2018-07-06T00:39:13.785Z,10.30
2018-07-06T00:40:13.725Z,10.50
2018-07-06T00:41:13.664Z,10.40
2018-07-06T00:42:13.603Z,11.10
2018-07-06T00:43:13.545Z,9.90
2018-07-06T00:44:13.483Z,9.50
2018-07-06T00:45:13.426Z,10.40
2018-07-06T00:46:13.362Z,9.60
2018-07-06T00:47:13.302Z,9.50
2018-07-06T00:48:13.244Z,9.80
2018-07-06T00:49:13.183Z,9.50
2018-07-06T00:50:13.122Z,10.00
2018-07-06T00:51:13.059Z,9.00
2018-07-06T00:52:13.002Z,9.60
2018-07-06T00:53:12.940Z,8.80
2018-07-06T00:54:12.877Z,9.40
2018-07-06T00:55:12.820Z,9.20
2018-07-06T00:56:12.760Z,8.80
2018-07-06T00:57:12.696Z,9.40
2018-07-06T00:58:12.637Z,9.30
2018-07-06T00:59:12.576Z,8.70
2018-07-06T01:00:12.515Z,9.80
2018-07-06T01:01:12.456Z,9.50
2018-07-06T01:02:12.395Z,9.40
2018-07-06T01:03:12.336Z,9.30
2018-07-06T01:04:12.275Z,9.70
2018-07-06T01:05:12.213Z,9.80
2018-07-06T01:06:12.153Z,9.40
2018-07-06T01:07:12.093Z,10.70
2018-07-06T01:08:12.033Z,9.50
2018-07-06T01:09:11.974Z,10.50
2018-07-06T01:10:11.932Z,9.90
2018-07-06T01:11:11.850Z,9.60
2018-07-06T01:12:11.793Z,9.60
2018-07-06T01:13:11.733Z,9.70
2018-07-06T01:14:11.668Z,10.20
2018-07-06T01:15:11.607Z,10.10
2018-07-06T01:16:11.548Z,10.10
2018-07-06T01:17:11.487Z,9.70
2018-07-06T01:18:11.449Z,7.50
2018-07-06T01:19:11.365Z,7.50
2018-07-06T01:20:11.306Z,8.40
2018-07-06T01:21:11.245Z,7.00
2018-07-06T01:22:11.183Z,7.50
2018-07-06T01:23:11.122Z,7.20
2018-07-06T01:24:11.060Z,7.40
2018-07-06T01:25:11.000Z,7.50
2018-07-06T01:26:10.942Z,7.90
2018-07-06T01:27:10.882Z,8.20
2018-07-06T01:28:10.818Z,8.10
2018-07-06T01:29:10.756Z,7.90
2018-07-06T01:30:10.696Z,7.40
2018-07-06T01:31:10.666Z,7.80
2018-07-06T01:32:10.574Z,6.60
2018-07-06T01:33:10.514Z,7.40
2018-07-06T01:34:10.457Z,6.70
2018-07-06T01:35:10.391Z,6.70
2018-07-06T01:36:10.333Z,6.80
2018-07-06T01:37:10.273Z,6.70
2018-07-06T01:38:10.208Z,7.70
2018-07-06T01:39:10.152Z,7.40
2018-07-06T01:40:10.087Z,6.90
2018-07-06T01:41:10.026Z,7.00
2018-07-06T01:42:09.968Z,6.60
2018-07-06T01:43:09.907Z,6.80
2018-07-06T01:44:09.846Z,6.50
2018-07-06T01:45:09.785Z,6.20
2018-07-06T01:46:09.724Z,5.60
2018-07-06T01:47:09.662Z,6.20
2018-07-06T01:48:09.610Z,5.90
2018-07-06T01:49:09.545Z,5.50
2018-07-06T01:50:09.481Z,4.80
2018-07-06T01:51:09.421Z,5.20
2018-07-06T01:52:09.369Z,5.40
2018-07-06T01:53:09.297Z,5.30
2018-07-06T01:54:09.242Z,5.30
2018-07-06T01:55:09.176Z,5.00
2018-07-06T01:56:09.118Z,5.90
2018-07-06T01:57:09.056Z,5.20
2018-07-06T01:58:08.994Z,5.10
2018-07-06T01:59:08.933Z,4.80
2018-07-06T02:00:08.873Z,5.00
2018-07-06T02:01:08.814Z,5.10
2018-07-06T02:02:08.751Z,4.60
2018-07-06T02:03:08.691Z,4.30
2018-07-06T02:04:08.630Z,4.90
2018-07-06T02:05:08.572Z,4.20
2018-07-06T02:06:08.507Z,4.70
2018-07-06T02:07:08.446Z,3.90
2018-07-06T02:08:08.387Z,3.30
2018-07-06T02:09:08.320Z,3.40
2018-07-06T02:10:08.264Z,3.60
2018-07-06T02:11:08.203Z,3.40
2018-07-06T02:12:08.142Z,3.20
2018-07-06T02:13:08.086Z,3.20
2018-07-06T02:14:08.020Z,3.10
2018-07-06T02:15:07.959Z,2.90
2018-07-06T02:16:07.899Z,2.90
2018-07-06T02:17:07.838Z,3.30
2018-07-06T02:18:07.777Z,3.00
2018-07-06T02:19:07.714Z,3.30
2018-07-06T02:20:07.657Z,3.00
2018-07-06T02:21:07.594Z,3.20
2018-07-06T02:22:07.537Z,3.20
2018-07-06T02:23:07.475Z,2.90
2018-07-06T02:24:07.412Z,3.10
2018-07-06T02:25:07.348Z,3.10
2018-07-06T02:26:07.290Z,3.60
2018-07-06T02:27:07.228Z,3.40
2018-07-06T02:28:07.165Z,3.30
2018-07-06T02:29:07.107Z,3.20
2018-07-06T02:30:07.048Z,3.20
2018-07-06T02:31:06.985Z,3.30
2018-07-06T02:32:06.923Z,3.40
2018-07-06T02:33:06.863Z,3.30
2018-07-06T02:34:06.806Z,3.60
2018-07-06T02:35:06.744Z,3.40
2018-07-06T02:36:06.679Z,3.40
2018-07-06T02:37:06.620Z,3.30
2018-07-06T02:38:06.557Z,3.50
2018-07-06T02:39:06.495Z,3.50
2018-07-06T02:40:06.432Z,3.70
2018-07-06T02:41:06.374Z,3.40
2018-07-06T02:42:06.315Z,3.40
2018-07-06T02:43:06.252Z,3.60
2018-07-06T02:44:06.192Z,3.20
2018-07-06T02:45:06.129Z,3.60
2018-07-06T02:46:06.069Z,3.90
2018-07-06T02:47:06.008Z,3.90
2018-07-06T02:48:05.949Z,3.70
2018-07-06T02:49:05.888Z,3.70
2018-07-06T02:50:05.828Z,3.50
2018-07-06T02:51:05.764Z,3.50
2018-07-06T02:52:05.711Z,3.90
2018-07-06T02:53:05.643Z,3.90
2018-07-06T02:54:05.582Z,3.80
2018-07-06T02:55:05.554Z,3.50
2018-07-06T02:56:05.460Z,4.00
2018-07-06T02:57:05.398Z,4.00
2018-07-06T02:58:05.379Z,3.80
2018-07-06T02:59:05.276Z,4.60
2018-07-06T03:00:05.216Z,7.00
2018-07-06T03:01:05.156Z,5.90
2018-07-06T03:02:05.095Z,6.40
2018-07-06T03:03:05.033Z,5.30
2018-07-06T03:04:04.972Z,5.10
2018-07-06T03:05:04.912Z,4.60
2018-07-06T03:06:04.849Z,4.30
2018-07-06T03:07:04.788Z,4.30
2018-07-06T03:08:04.728Z,4.00
2018-07-06T03:09:04.667Z,4.20
2018-07-06T03:10:04.611Z,4.30
2018-07-06T03:11:04.547Z,4.00
2018-07-06T03:12:04.485Z,4.20
2018-07-06T03:13:04.424Z,4.10
2018-07-06T03:14:04.360Z,4.10
2018-07-06T03:15:04.301Z,4.10
2018-07-06T03:16:04.242Z,4.10
2018-07-06T03:17:04.178Z,3.90
2018-07-06T03:18:04.120Z,3.80
2018-07-06T03:19:04.059Z,4.00
2018-07-06T03:20:03.997Z,4.20
2018-07-06T03:21:03.936Z,4.30
2018-07-06T03:22:03.875Z,3.90
2018-07-06T03:23:03.813Z,4.50
2018-07-06T03:24:03.752Z,4.40
2018-07-06T03:25:03.693Z,4.30
2018-07-06T03:26:03.630Z,4.10
2018-07-06T03:27:03.568Z,4.30
2018-07-06T03:28:03.531Z,3.90
2018-07-06T03:29:03.447Z,4.20
2018-07-06T03:30:03.385Z,4.20
2018-07-06T03:31:03.324Z,3.80
2018-07-06T03:32:03.268Z,4.50
2018-07-06T03:33:03.204Z,4.20
2018-07-06T03:34:03.143Z,4.30
2018-07-06T03:35:03.081Z,4.10
2018-07-06T03:36:03.018Z,4.40
2018-07-06T03:37:03.011Z,4.30
2018-07-06T03:38:02.901Z,4.40
2018-07-06T03:39:02.839Z,4.60
2018-07-06T03:40:02.777Z,4.40
2018-07-06T03:41:02.717Z,4.20
2018-07-06T03:42:02.653Z,4.40
2018-07-06T03:43:02.593Z,4.60
2018-07-06T03:44:02.542Z,4.10
2018-07-06T03:45:02.470Z,3.70
2018-07-06T03:46:02.409Z,4.30
2018-07-06T03:47:02.349Z,4.40
2018-07-06T03:48:02.302Z,4.40
2018-07-06T03:49:02.231Z,4.40
2018-07-06T03:50:02.166Z,4.30
2018-07-06T03:51:02.110Z,4.00
2018-07-06T03:52:02.042Z,4.50
2018-07-06T03:53:01.984Z,4.20
2018-07-06T03:54:01.922Z,4.20
2018-07-06T03:55:01.889Z,4.00
2018-07-06T03:56:01.805Z,3.60
2018-07-06T03:57:01.738Z,4.10
2018-07-06T03:58:01.677Z,4.10
2018-07-06T03:59:01.616Z,4.20
2018-07-06T04:00:01.554Z,4.00
2018-07-06T04:01:01.499Z,4.30
2018-07-06T04:02:01.435Z,4.20
2018-07-06T04:03:01.373Z,4.10
2018-07-06T04:04:01.314Z,4.10
2018-07-06T04:05:01.249Z,4.40
2018-07-06T04:06:01.190Z,4.20
2018-07-06T04:07:01.128Z,4.20
2018-07-06T04:08:01.067Z,4.80
2018-07-06T04:09:01.009Z,4.70
2018-07-06T04:10:00.948Z,4.40
2018-07-06T04:11:00.886Z,4.40
2018-07-06T04:12:00.823Z,4.60
2018-07-06T04:13:00.763Z,4.50
2018-07-06T04:14:00.700Z,4.30
2018-07-06T04:15:00.639Z,4.40
2018-07-06T04:16:00.641Z,4.10
2018-07-06T04:17:00.517Z,4.80
2018-07-06T04:18:00.456Z,4.80
2018-07-06T04:19:00.396Z,4.30
2018-07-06T04:20:00.335Z,4.40
2018-07-06T04:21:00.277Z,4.50
2018-07-06T04:22:00.214Z,4.00
2018-07-06T04:23:00.151Z,4.40
2018-07-06T04:24:00.090Z,4.60
2018-07-06T04:25:00.035Z,4.10
2018-07-06T04:25:59.969Z,4.40
2018-07-06T04:26:59.906Z,4.20
2018-07-06T04:27:59.846Z,4.50
2018-07-06T04:28:59.786Z,4.20
2018-07-06T04:29:59.724Z,4.50
2018-07-06T04:30:59.662Z,4.60
2018-07-06T04:31:59.604Z,4.60
2018-07-06T04:32:59.540Z,5.20
2018-07-06T04:33:59.481Z,5.20
2018-07-06T04:34:59.420Z,5.20
2018-07-06T04:35:59.359Z,5.30
2018-07-06T04:36:59.296Z,5.10
2018-07-06T04:37:59.236Z,5.90
2018-07-06T04:38:59.175Z,6.30
2018-07-06T04:39:59.114Z,6.90
2018-07-06T04:40:59.052Z,6.60
2018-07-06T04:41:58.992Z,6.60
2018-07-06T04:42:58.930Z,6.80
2018-07-06T04:43:58.868Z,6.50
2018-07-06T04:44:58.809Z,6.00
2018-07-06T04:45:58.750Z,6.60
2018-07-06T04:46:58.685Z,6.30
2018-07-06T04:47:58.625Z,6.10
2018-07-06T04:48:58.566Z,6.50
2018-07-06T04:49:58.500Z,6.00
2018-07-06T04:50:58.447Z,6.40
2018-07-06T04:51:58.384Z,6.10
2018-07-06T04:52:58.319Z,6.10
2018-07-06T04:53:58.259Z,5.70
2018-07-06T04:54:58.201Z,6.20
2018-07-06T04:55:58.138Z,6.10
2018-07-06T04:56:58.077Z,6.70
2018-07-06T04:57:58.017Z,7.00
2018-07-06T04:58:57.953Z,7.30
2018-07-06T04:59:57.909Z,6.50
2018-07-06T05:00:57.833Z,7.10
2018-07-06T05:01:57.772Z,6.90
2018-07-06T05:02:57.712Z,6.70
2018-07-06T05:03:57.650Z,6.90
2018-07-06T05:04:57.588Z,7.30
2018-07-06T05:05:57.528Z,7.40
2018-07-06T05:06:57.468Z,7.50
2018-07-06T05:07:57.406Z,7.40
2018-07-06T05:08:57.343Z,7.50
2018-07-06T05:09:57.283Z,7.40
2018-07-06T05:10:57.224Z,7.20
2018-07-06T05:11:57.163Z,7.50
2018-07-06T05:12:57.101Z,6.70
2018-07-06T05:13:57.041Z,6.70
2018-07-06T05:14:56.980Z,6.80
2018-07-06T05:15:56.923Z,6.80
2018-07-06T05:16:56.907Z,6.30
2018-07-06T05:17:56.797Z,7.10
2018-07-06T05:18:56.743Z,6.70
2018-07-06T05:19:56.675Z,7.10
2018-07-06T05:20:56.612Z,7.40
2018-07-06T05:21:56.553Z,6.70
2018-07-06T05:22:56.492Z,6.70
2018-07-06T05:23:56.431Z,6.60
2018-07-06T05:24:56.370Z,6.70
2018-07-06T05:25:56.309Z,8.00
2018-07-06T05:26:56.249Z,7.60
2018-07-06T05:27:56.187Z,7.80
2018-07-06T05:28:56.128Z,7.80
2018-07-06T05:29:56.064Z,7.50
2018-07-06T05:30:56.006Z,7.60
2018-07-06T05:31:56.002Z,7.30
2018-07-06T05:32:55.887Z,7.30
2018-07-06T05:33:55.829Z,7.60
2018-07-06T05:34:55.761Z,8.10
2018-07-06T05:35:55.702Z,7.70
2018-07-06T05:36:55.639Z,8.10
2018-07-06T05:37:55.647Z,7.50
2018-07-06T05:38:55.520Z,7.20
2018-07-06T05:39:55.496Z,7.50
2018-07-06T05:40:55.394Z,6.90
2018-07-06T05:41:55.333Z,6.70
2018-07-06T05:42:55.273Z,6.90
2018-07-06T05:43:55.212Z,6.80
2018-07-06T05:44:55.151Z,6.50
2018-07-06T05:45:55.089Z,6.30
2018-07-06T05:46:55.031Z,6.70
2018-07-06T05:47:54.991Z,6.70
2018-07-06T05:48:54.906Z,6.30
2018-07-06T05:49:54.847Z,7.00
2018-07-06T05:50:54.786Z,6.20
2018-07-06T05:51:54.727Z,5.90
2018-07-06T05:52:54.667Z,5.90
2018-07-06T05:53:54.603Z,6.10
2018-07-06T05:54:54.543Z,6.10
2018-07-06T05:55:54.482Z,6.00
2018-07-06T05:56:54.418Z,6.50
2018-07-06T05:57:54.357Z,5.80
2018-07-06T05:58:54.297Z,6.20
2018-07-06T05:59:54.239Z,6.70
2018-07-06T06:00:54.176Z,6.30
2018-07-06T06:01:54.117Z,6.90
2018-07-06T06:02:54.055Z,6.40
2018-07-06T06:03:53.994Z,6.80
2018-07-06T06:04:53.934Z,7.80
2018-07-06T06:05:53.871Z,7.30
2018-07-06T06:06:53.811Z,7.40
2018-07-06T06:07:53.749Z,7.40
2018-07-06T06:08:53.688Z,7.60
2018-07-06T06:09:53.634Z,6.50
2018-07-06T06:10:53.567Z,6.40
2018-07-06T06:11:53.509Z,6.90
2018-07-06T06:12:53.447Z,6.90
2018-07-06T06:13:53.387Z,7.60
2018-07-06T06:14:53.329Z,7.00
2018-07-06T06:15:53.263Z,7.70
2018-07-06T06:16:53.202Z,8.00
2018-07-06T06:17:53.142Z,6.90
2018-07-06T06:18:53.231Z,7.20
2018-07-06T06:19:53.021Z,7.00
2018-07-06T06:20:52.958Z,7.50
2018-07-06T06:21:52.897Z,7.00
2018-07-06T06:22:52.836Z,7.20
2018-07-06T06:23:52.773Z,7.00
2018-07-06T06:24:52.724Z,6.80
2018-07-06T06:25:52.678Z,7.90
2018-07-06T06:26:52.593Z,7.10
2018-07-06T06:27:52.533Z,8.00
2018-07-06T06:28:52.472Z,7.40
2018-07-06T06:29:52.411Z,7.20
2018-07-06T06:30:52.350Z,7.50
2018-07-06T06:31:52.290Z,7.30
2018-07-06T06:32:52.300Z,7.40
2018-07-06T06:33:52.269Z,7.00
2018-07-06T06:34:52.107Z,7.20
2018-07-06T06:35:52.045Z,6.50
2018-07-06T06:36:51.984Z,6.80
2018-07-06T06:37:51.928Z,6.70
2018-07-06T06:38:51.864Z,7.30
2018-07-06T06:39:51.803Z,7.30
2018-07-06T06:40:51.746Z,7.10
2018-07-06T06:41:51.681Z,6.90
2018-07-06T06:42:51.626Z,7.40
2018-07-06T06:43:51.560Z,7.20
2018-07-06T06:44:51.583Z,7.70
2018-07-06T06:45:51.438Z,7.50
2018-07-06T06:46:51.378Z,7.90
2018-07-06T06:47:51.315Z,7.60
2018-07-06T06:48:51.255Z,8.10
2018-07-06T06:49:51.199Z,7.90
2018-07-06T06:50:51.136Z,8.10
2018-07-06T06:51:51.073Z,7.30
2018-07-06T06:52:51.009Z,7.30
2018-07-06T06:53:50.950Z,7.20
2018-07-06T06:54:50.895Z,7.00
2018-07-06T06:55:50.828Z,6.40
2018-07-06T06:56:50.767Z,6.80
2018-07-06T06:57:50.708Z,6.40
2018-07-06T06:58:50.646Z,7.00
2018-07-06T06:59:50.591Z,7.30
2018-07-06T07:00:50.529Z,7.60
2018-07-06T07:01:50.464Z,7.20
2018-07-06T07:02:50.405Z,8.00
2018-07-06T07:03:50.342Z,7.70
2018-07-06T07:04:50.282Z,8.00
2018-07-06T07:05:50.224Z,8.00
2018-07-06T07:06:50.160Z,8.50
2018-07-06T07:07:50.134Z,8.10
2018-07-06T07:08:50.039Z,9.10
2018-07-06T07:09:49.982Z,8.30
2018-07-06T07:10:49.918Z,8.40
2018-07-06T07:11:49.857Z,9.70
2018-07-06T07:12:49.798Z,9.40
2018-07-06T07:13:49.820Z,10.20
2018-07-06T07:14:49.677Z,10.60
2018-07-06T07:15:49.615Z,10.10
2018-07-06T07:16:49.551Z,10.10
2018-07-06T07:17:49.491Z,9.20
2018-07-06T07:18:49.431Z,10.60
2018-07-06T07:19:49.371Z,11.00
2018-07-06T07:20:49.310Z,11.30
2018-07-06T07:21:49.249Z,11.00
2018-07-06T07:22:49.188Z,10.50
2018-07-06T07:23:49.128Z,10.80
2018-07-06T07:24:49.066Z,10.60
2018-07-06T07:25:49.007Z,10.50
2018-07-06T07:26:48.945Z,10.40
2018-07-06T07:27:48.887Z,11.30
2018-07-06T07:28:48.823Z,11.10
2018-07-06T07:29:48.762Z,12.00
2018-07-06T07:30:48.701Z,10.90
2018-07-06T07:31:48.642Z,10.40
2018-07-06T07:32:48.580Z,11.10
2018-07-06T07:33:48.520Z,11.20
2018-07-06T07:34:48.460Z,11.00
2018-07-06T07:35:48.399Z,10.20
2018-07-06T07:36:48.339Z,10.70
2018-07-06T07:37:48.280Z,10.70
2018-07-06T07:38:48.234Z,9.80
2018-07-06T07:39:48.158Z,10.60
2018-07-06T07:40:48.098Z,11.50
2018-07-06T07:41:48.035Z,11.10
2018-07-06T07:42:47.976Z,11.80
2018-07-06T07:43:47.915Z,11.00
2018-07-06T07:44:47.859Z,11.10
2018-07-06T07:45:47.794Z,11.20
2018-07-06T07:46:47.735Z,11.50
2018-07-06T07:47:47.671Z,11.20
2018-07-06T07:48:47.611Z,10.80
2018-07-06T07:49:47.550Z,10.20
2018-07-06T07:50:47.490Z,11.20
2018-07-06T07:51:47.429Z,11.10
2018-07-06T07:52:47.369Z,10.80
2018-07-06T07:53:47.308Z,10.50
2018-07-06T07:54:47.250Z,11.70
2018-07-06T07:55:47.189Z,11.70
2018-07-06T07:56:47.128Z,10.80
2018-07-06T07:57:47.066Z,11.80
2018-07-06T07:58:47.006Z,12.20
2018-07-06T07:59:46.947Z,11.40
2018-07-06T08:00:46.978Z,11.50
2018-07-06T08:01:57.724Z,11.70
2018-07-06T08:02:47.442Z,10.80
2018-07-06T08:03:46.704Z,11.20
2018-07-06T08:04:46.643Z,12.30
2018-07-06T08:05:48.158Z,11.70
2018-07-06T08:06:46.529Z,11.60
2018-07-06T08:07:46.758Z,12.00
2018-07-06T08:08:46.400Z,11.50
2018-07-06T08:09:46.339Z,12.20
2018-07-06T08:10:46.279Z,12.90
2018-07-06T08:11:46.291Z,13.00
2018-07-06T08:12:46.158Z,12.60
2018-07-06T08:13:46.098Z,12.30
2018-07-06T08:14:46.036Z,13.20
2018-07-06T08:15:45.976Z,12.60
2018-07-06T08:16:45.914Z,12.70
2018-07-06T08:17:45.857Z,14.00
2018-07-06T08:18:45.792Z,13.00
2018-07-06T08:19:45.736Z,13.00
2018-07-06T08:20:45.674Z,12.10
2018-07-06T08:21:45.615Z,12.60
2018-07-06T08:22:45.553Z,13.30
2018-07-06T08:23:45.495Z,12.60
2018-07-06T08:24:45.439Z,13.00
2018-07-06T08:25:45.372Z,12.90
2018-07-06T08:26:45.313Z,13.40
2018-07-06T08:27:45.250Z,13.00
2018-07-06T08:28:45.192Z,13.60
2018-07-06T08:29:45.129Z,13.00
2018-07-06T08:30:45.071Z,13.00
2018-07-06T08:31:45.013Z,12.70
2018-07-06T08:32:44.949Z,12.20
2018-07-06T08:33:44.886Z,12.50
2018-07-06T08:34:44.827Z,12.50
2018-07-06T08:35:44.766Z,12.60
2018-07-06T08:36:44.709Z,13.70
2018-07-06T08:37:44.645Z,13.20
2018-07-06T08:38:44.584Z,13.20
2018-07-06T08:39:44.537Z,14.00
2018-07-06T08:40:44.466Z,13.70
2018-07-06T08:41:44.403Z,13.80
2018-07-06T08:42:44.342Z,13.10
2018-07-06T08:43:44.283Z,13.40
2018-07-06T08:44:44.225Z,13.40
2018-07-06T08:45:44.162Z,13.90
2018-07-06T08:46:44.100Z,14.20
2018-07-06T08:47:44.043Z,14.90
2018-07-06T08:48:43.982Z,14.90
2018-07-06T08:49:43.921Z,15.10
2018-07-06T08:50:43.862Z,15.10
2018-07-06T08:51:43.798Z,14.70
2018-07-06T08:52:43.739Z,15.80
2018-07-06T08:53:43.679Z,14.80
2018-07-06T08:54:43.619Z,14.80
2018-07-06T08:55:43.558Z,15.20
2018-07-06T08:56:43.496Z,15.70
2018-07-06T08:57:43.437Z,13.70
2018-07-06T08:58:43.424Z,14.10
2018-07-06T08:59:43.317Z,14.60
2018-07-06T09:00:43.254Z,14.70
2018-07-06T09:01:43.201Z,13.20
2018-07-06T09:02:43.134Z,13.30
2018-07-06T09:03:43.076Z,13.40
2018-07-06T09:04:43.123Z,13.10
2018-07-06T09:05:42.952Z,13.10
2018-07-06T09:06:42.895Z,13.30
2018-07-06T09:07:42.902Z,13.00
2018-07-06T09:08:42.772Z,13.40
2018-07-06T09:09:42.714Z,13.60
2018-07-06T09:10:42.654Z,12.60
2018-07-06T09:11:42.593Z,12.90
2018-07-06T09:12:42.531Z,12.60
2018-07-06T09:13:42.474Z,13.10
2018-07-06T09:14:42.415Z,13.20
2018-07-06T09:15:42.356Z,12.70
2018-07-06T09:16:42.296Z,12.20
2018-07-06T09:17:42.233Z,13.00
2018-07-06T09:18:42.171Z,11.60
2018-07-06T09:19:42.251Z,12.30
2018-07-06T09:20:42.050Z,12.10
2018-07-06T09:21:41.994Z,12.00
2018-07-06T09:22:41.932Z,13.00
2018-07-06T09:23:41.873Z,12.00
2018-07-06T09:24:41.814Z,12.80
2018-07-06T09:25:41.871Z,13.10
2018-07-06T09:26:41.694Z,12.10
2018-07-06T09:27:41.636Z,12.50
2018-07-06T09:28:41.573Z,12.40
2018-07-06T09:29:41.514Z,12.60
2018-07-06T09:30:41.457Z,12.10
2018-07-06T09:31:41.395Z,12.20
2018-07-06T09:32:41.335Z,13.00
2018-07-06T09:33:41.274Z,13.00
2018-07-06T09:34:41.220Z,13.20
2018-07-06T09:35:41.158Z,11.90
2018-07-06T09:36:41.095Z,12.70
2018-07-06T09:37:41.037Z,13.20
2018-07-06T09:38:40.979Z,12.30
2018-07-06T09:39:40.916Z,12.70
2018-07-06T09:40:40.855Z,12.30
2018-07-06T09:41:40.797Z,12.80
2018-07-06T09:42:40.738Z,12.00
2018-07-06T09:43:40.677Z,11.80
2018-07-06T09:44:40.621Z,11.40
2018-07-06T09:45:40.555Z,11.70
2018-07-06T09:46:40.499Z,10.50
2018-07-06T09:47:40.440Z,10.30
2018-07-06T09:48:40.378Z,10.90
2018-07-06T09:49:40.327Z,10.90
2018-07-06T09:50:40.261Z,11.60
2018-07-06T09:51:40.205Z,11.00
2018-07-06T09:52:40.143Z,11.10
2018-07-06T09:53:40.083Z,10.40
2018-07-06T09:54:40.027Z,11.00
2018-07-06T09:55:39.965Z,11.20
2018-07-06T09:56:39.905Z,11.20
2018-07-06T09:57:39.850Z,11.10
2018-07-06T09:58:39.787Z,11.50
2018-07-06T09:59:39.729Z,11.50
2018-07-06T10:00:39.669Z,10.60
2018-07-06T10:01:39.669Z,10.90
2018-07-06T10:02:39.562Z,10.10
2018-07-06T10:03:39.493Z,10.30
2018-07-06T10:04:39.427Z,10.60
2018-07-06T10:05:39.411Z,10.10
2018-07-06T10:06:39.361Z,9.60
2018-07-06T10:07:39.328Z,9.90
2018-07-06T10:08:39.291Z,9.20
2018-07-06T10:09:39.139Z,10.00
2018-07-06T10:10:39.102Z,9.70
2018-07-06T10:11:39.015Z,9.90
2018-07-06T10:12:39.032Z,9.50
2018-07-06T10:13:38.902Z,10.20
2018-07-06T10:14:38.859Z,10.10
2018-07-06T10:15:38.785Z,10.10
2018-07-06T10:16:38.724Z,10.00
2018-07-06T10:17:38.664Z,9.90
2018-07-06T10:18:38.609Z,10.10
2018-07-06T10:19:38.634Z,10.70
2018-07-06T10:20:38.487Z,10.40
2018-07-06T10:21:38.438Z,10.70
2018-07-06T10:22:38.372Z,10.20
2018-07-06T10:23:38.316Z,9.50
2018-07-06T10:24:38.254Z,9.90
2018-07-06T10:25:38.198Z,9.50
2018-07-06T10:26:38.139Z,9.00
2018-07-06T10:27:38.080Z,8.30
2018-07-06T10:28:38.022Z,8.30
2018-07-06T10:29:37.964Z,8.50
2018-07-06T10:30:37.905Z,7.90
2018-07-06T10:31:37.848Z,7.20
2018-07-06T10:32:37.795Z,8.10
2018-07-06T10:33:37.799Z,7.90
2018-07-06T10:34:37.671Z,7.50
2018-07-06T10:35:37.614Z,8.50
2018-07-06T10:36:37.556Z,8.40
2018-07-06T10:37:37.498Z,7.90
2018-07-06T10:38:37.441Z,8.70
2018-07-06T10:39:37.442Z,9.20
2018-07-06T10:40:37.332Z,9.40
2018-07-06T10:41:37.273Z,9.00
2018-07-06T10:42:37.211Z,8.30
2018-07-06T10:43:37.154Z,9.20
2018-07-06T10:44:37.097Z,8.70
2018-07-06T10:45:37.036Z,9.20
2018-07-06T10:46:36.982Z,9.40
2018-07-06T10:47:36.921Z,10.20
2018-07-06T10:48:36.874Z,10.00
2018-07-06T10:49:36.806Z,9.60
2018-07-06T10:50:36.767Z,9.10
2018-07-06T10:51:36.692Z,9.50
2018-07-06T10:52:36.632Z,8.70
2018-07-06T10:53:36.576Z,8.60
2018-07-06T10:54:36.517Z,8.20
2018-07-06T10:55:36.459Z,8.10
2018-07-06T10:56:36.401Z,8.10
2018-07-06T10:57:36.344Z,7.90
2018-07-06T10:58:36.288Z,7.80
2018-07-06T10:59:36.229Z,7.70
2018-07-06T11:00:36.171Z,7.70
2018-07-06T11:01:36.129Z,7.40
2018-07-06T11:02:36.054Z,7.50
2018-07-06T11:03:35.995Z,7.60
2018-07-06T11:04:35.936Z,8.10
2018-07-06T11:05:35.879Z,7.50
2018-07-06T11:06:35.821Z,7.30
2018-07-06T11:07:35.763Z,7.40
2018-07-06T11:08:35.707Z,7.40
2018-07-06T11:09:35.646Z,7.50
2018-07-06T11:10:35.593Z,7.40
2018-07-06T11:11:35.539Z,7.40
2018-07-06T11:12:35.473Z,7.10
2018-07-06T11:13:35.415Z,7.50
2018-07-06T11:14:35.358Z,7.50
2018-07-06T11:15:35.300Z,7.30
2018-07-06T11:16:35.240Z,7.10
2018-07-06T11:17:35.189Z,7.00
2018-07-06T11:18:35.121Z,7.50
2018-07-06T11:19:35.068Z,7.90
2018-07-06T11:20:35.010Z,7.60
2018-07-06T11:21:34.952Z,9.00
2018-07-06T11:22:34.893Z,8.40
2018-07-06T11:23:34.834Z,8.50
2018-07-06T11:24:34.780Z,8.60
2018-07-06T11:25:34.719Z,8.70
2018-07-06T11:26:34.661Z,8.80
2018-07-06T11:27:34.604Z,9.20
2018-07-06T11:28:34.546Z,9.90
2018-07-06T11:29:34.490Z,10.30
2018-07-06T11:30:34.429Z,10.40
2018-07-06T11:31:34.372Z,9.30
2018-07-06T11:32:34.312Z,9.60
2018-07-06T11:33:34.252Z,9.70
2018-07-06T11:34:34.195Z,9.80
2018-07-06T11:35:34.137Z,10.00
2018-07-06T11:36:34.081Z,9.90
2018-07-06T11:37:34.019Z,11.50
2018-07-06T11:38:33.965Z,9.50
2018-07-06T11:39:33.906Z,10.40
2018-07-06T11:40:33.851Z,9.60
2018-07-06T11:41:33.791Z,8.90
2018-07-06T11:42:33.735Z,8.70
2018-07-06T11:43:33.676Z,9.70
2018-07-06T11:44:33.615Z,9.80
2018-07-06T11:45:33.558Z,9.80
2018-07-06T11:46:33.502Z,9.70
2018-07-06T11:47:33.445Z,10.30
2018-07-06T11:48:33.386Z,9.90
2018-07-06T11:49:33.334Z,10.20
2018-07-06T11:50:33.273Z,10.20
2018-07-06T11:51:33.215Z,10.30
2018-07-06T11:52:33.153Z,10.20
2018-07-06T11:53:33.099Z,10.30
2018-07-06T11:54:33.040Z,9.80
2018-07-06T11:55:32.988Z,10.00
2018-07-06T11:56:32.924Z,10.30
2018-07-06T11:57:32.870Z,10.70
2018-07-06T11:58:32.815Z,10.30
2018-07-06T11:59:32.756Z,10.20
2018-07-06T12:00:32.696Z,10.40
2018-07-06T12:01:32.638Z,9.60
2018-07-06T12:02:32.579Z,9.90
2018-07-06T12:03:32.524Z,10.80
2018-07-06T12:04:32.537Z,10.30
2018-07-06T12:05:32.406Z,9.70
2018-07-06T12:06:32.351Z,10.30
2018-07-06T12:07:32.293Z,10.60
2018-07-06T12:08:32.238Z,10.60
2018-07-06T12:09:32.177Z,10.40
2018-07-06T12:10:32.118Z,10.30
2018-07-06T12:11:32.068Z,10.30
2018-07-06T12:12:32.000Z,11.10
2018-07-06T12:13:31.947Z,11.10
2018-07-06T12:14:31.901Z,10.70
2018-07-06T12:15:31.875Z,10.80
2018-07-06T12:16:31.774Z,11.50
2018-07-06T12:17:31.717Z,11.40
2018-07-06T12:18:31.663Z,11.70
2018-07-06T12:19:31.605Z,11.90
2018-07-06T12:20:31.541Z,12.60
2018-07-06T12:21:31.486Z,12.90
2018-07-06T12:22:31.428Z,12.50
2018-07-06T12:23:31.372Z,12.10
2018-07-06T12:24:31.314Z,11.90
2018-07-06T12:25:31.261Z,12.40
2018-07-06T12:26:31.198Z,12.10
2018-07-06T12:27:31.139Z,12.40
2018-07-06T12:28:31.080Z,12.10
2018-07-06T12:29:31.025Z,12.30
2018-07-06T12:30:30.967Z,11.50
2018-07-06T12:31:30.908Z,12.20
2018-07-06T12:32:30.852Z,11.70
2018-07-06T12:33:30.791Z,12.70
2018-07-06T12:34:30.735Z,12.70
2018-07-06T12:35:30.678Z,12.30
2018-07-06T12:36:30.645Z,13.00
2018-07-06T12:37:30.561Z,12.40
2018-07-06T12:38:30.505Z,12.60
2018-07-06T12:39:30.443Z,12.30
2018-07-06T12:40:30.386Z,12.00
2018-07-06T12:41:30.374Z,11.70
2018-07-06T12:42:30.273Z,12.00
2018-07-06T12:43:30.215Z,11.50
2018-07-06T12:44:30.155Z,13.00
2018-07-06T12:45:30.101Z,12.30
2018-07-06T12:46:30.041Z,11.50
2018-07-06T12:47:29.984Z,11.60
2018-07-06T12:48:29.929Z,11.60
2018-07-06T12:49:29.869Z,11.40
2018-07-06T12:50:29.811Z,11.00
2018-07-06T12:51:29.757Z,12.20
2018-07-06T12:52:29.717Z,11.80
2018-07-06T12:53:29.637Z,11.60
2018-07-06T12:54:29.580Z,11.90
2018-07-06T12:55:29.525Z,11.40
2018-07-06T12:56:29.464Z,11.50
2018-07-06T12:57:29.429Z,11.80
2018-07-06T12:58:29.387Z,11.60
2018-07-06T12:59:29.293Z,10.50
2018-07-06T13:00:29.235Z,11.60
2018-07-06T13:01:29.178Z,11.90
2018-07-06T13:02:29.121Z,12.10
2018-07-06T13:03:29.062Z,11.30
2018-07-06T13:04:29.004Z,12.20
2018-07-06T13:05:28.946Z,11.40
2018-07-06T13:06:28.889Z,11.70
2018-07-06T13:07:28.833Z,11.60
2018-07-06T13:08:28.775Z,11.40